createdAt,value
2022-09-12T00:00:55.101Z,11.02
2022-09-12T00:20:55.037Z,10.76
2022-09-12T00:40:55.006Z,10.82
2022-09-12T01:00:54.983Z,10.32
2022-09-12T01:20:54.951Z,10.38
2022-09-12T01:40:54.895Z,9.88
2022-09-12T02:00:54.921Z,9.95
2022-09-12T02:20:54.821Z,9.67
2022-09-12T03:00:54.801Z,9.44
2022-09-12T03:20:54.721Z,9.3
2022-09-12T03:40:55.047Z,9.14
2022-09-12T04:20:54.620Z,8.89
2022-09-12T05:00:54.608Z,8.7
2022-09-12T05:20:54.513Z,8.83
2022-09-12T05:40:54.482Z,9.33
2022-09-12T06:00:54.450Z,9.81
2022-09-12T06:20:54.409Z,11.48
2022-09-12T06:40:54.374Z,12.77
2022-09-12T07:00:58.559Z,13.48
2022-09-12T07:20:54.296Z,14.55
2022-09-12T07:40:54.258Z,15.64
2022-09-12T08:00:54.229Z,15.98
2022-09-12T08:20:54.185Z,16.56
2022-09-12T08:40:54.132Z,17.42
2022-09-12T09:00:54.105Z,18.42
2022-09-12T09:20:54.058Z,19.57
2022-09-12T09:40:54.016Z,20.28
2022-09-12T10:00:56.683Z,20.6
2022-09-12T10:20:53.933Z,22.38
2022-09-12T10:40:53.894Z,23.28
2022-09-12T11:00:53.875Z,24.36
2022-09-12T11:20:53.818Z,24.32
2022-09-12T12:00:53.720Z,24.7
2022-09-12T12:20:53.682Z,25.1
2022-09-12T12:40:53.632Z,25.8
2022-09-12T13:20:53.561Z,25.42
2022-09-12T13:40:53.518Z,25.64
2022-09-12T14:00:53.465Z,25.81
2022-09-12T14:20:53.433Z,25.74
2022-09-12T14:40:53.415Z,25.51
2022-09-12T15:00:53.346Z,25.3
2022-09-12T15:20:53.308Z,25.12
2022-09-12T15:40:53.262Z,25.09
2022-09-12T16:00:53.219Z,25.14
2022-09-12T16:20:53.190Z,24.68
2022-09-12T16:40:53.146Z,24.1
2022-09-12T17:00:53.110Z,23.76
2022-09-12T17:20:53.063Z,23.57
2022-09-12T17:40:59.303Z,22.78
2022-09-12T18:00:52.992Z,21.22
2022-09-12T18:20:52.968Z,19.74
2022-09-12T18:40:52.889Z,18.47
2022-09-12T19:00:52.904Z,17.47
2022-09-12T19:20:52.803Z,16.99
2022-09-12T19:40:52.769Z,16.63
2022-09-12T20:00:52.733Z,16.21
2022-09-12T20:20:52.679Z,16.03
2022-09-12T20:40:52.647Z,15.67
2022-09-12T21:00:52.607Z,15.5
2022-09-12T21:20:52.571Z,15.22
2022-09-12T21:40:52.531Z,14.93
2022-09-12T22:20:52.453Z,14.69
2022-09-12T22:40:52.444Z,14.42
2022-09-12T23:20:52.341Z,14.09
2022-09-12T23:40:52.303Z,14.2
